Latest Weather Observations for South Channel Island

IDV60901

Issued at 11:35 pm EST Thursday 18 September 2014 (issued every 10 minutes, with the page automatically refreshed every 10 minutes)

About weather observations | Map of Melbourne area stations | Latest observations for Melbourne area | Other Formats
Station Details ID: 086344 Name: SOUTH CHANNEL ISLAND Lat: -38.31 Lon: 144.80 Height: 9.0 m
Data from the previous 72 hours. | See also: Recent months for locations in Victoria
Date/Time
EST
Tmp

°C
App
Tmp
°C
Dew
Point
°C
Rel
Hum
%
Delta-T

°C
Wind Press
QNH
hPa
Press
MSL
hPa
Rain
since
9 am
mm
Dir
 
Spd
km/h
Gust
km/h
Spd
kts
Gust
kts
18/11:30pm - - - - - SW 19 26 10 14 - - -
18/11:00pm - - - - - SW 20 24 11 13 - - -
18/10:30pm - - - - - SW 22 28 12 15 - - -
18/10:00pm - - - - - SSW 30 35 16 19 - - -
18/09:30pm - - - - - SW 30 35 16 19 - - -
18/09:00pm - - - - - SW 35 41 19 22 - - -
18/08:30pm - - - - - SW 33 39 18 21 - - -
18/08:00pm - - - - - SW 33 39 18 21 - - -
18/07:30pm - - - - - SW 33 39 18 21 - - -
18/07:00pm - - - - - SW 32 37 17 20 - - -
18/06:30pm - - - - - SW 37 43 20 23 - - -
18/06:00pm - - - - - SW 35 41 19 22 - - -
18/05:30pm - - - - - SW 39 48 21 26 - - -
18/05:00pm - - - - - SSW 43 50 23 27 - - -
18/04:30pm - - - - - SW 43 52 23 28 - - -
18/04:00pm - - - - - SW 41 48 22 26 - - -
18/03:30pm - - - - - SW 37 46 20 25 - - -
18/03:00pm - - - - - SSW 39 48 21 26 - - -
18/02:30pm - - - - - SSW 33 43 18 23 - - -
18/02:00pm - - - - - SW 32 35 17 19 - - -
18/01:30pm - - - - - SW 37 43 20 23 - - -
18/01:00pm - - - - - SSW 35 39 19 21 - - -
18/12:30pm - - - - - SSW 37 44 20 24 - - -
18/12:00pm - - - - - SSW 41 48 22 26 - - -
18/11:30am - - - - - SW 28 39 15 21 - - -
18/11:00am - - - - - SW 52 56 28 30 - - -
18/10:55am - - - - - SW 33 52 18 28 - - -
18/10:30am - - - - - SW 33 46 18 25 - - -
18/10:00am - - - - - SW 39 44 21 24 - - -
18/09:30am - - - - - SW 24 30 13 16 - - -
18/09:00am - - - - - SW 37 44 20 24 - - -
18/08:30am - - - - - SW 33 44 18 24 - - -
18/08:00am - - - - - SW 46 56 25 30 - - -
18/07:47am - - - - - WSW 30 50 16 27 - - -
18/07:30am - - - - - WSW 33 39 18 21 - - -
18/07:00am - - - - - SSW 35 46 19 25 - - -
18/06:30am - - - - - SSW 46 52 25 28 - - -
18/06:17am - - - - - SSW 32 43 17 23 - - -
18/06:00am - - - - - WSW 37 43 20 23 - - -
18/05:45am - - - - - WSW 52 57 28 31 - - -
18/05:30am - - - - - SSW 33 41 18 22 - - -
18/05:00am - - - - - SSW 41 48 22 26 - - -
18/04:30am - - - - - SSW 39 48 21 26 - - -
18/04:00am - - - - - SW 39 52 21 28 - - -
18/03:30am - - - - - SW 43 54 23 29 - - -
18/03:00am - - - - - SW 37 46 20 25 - - -
18/02:30am - - - - - SW 48 65 26 35 - - -
18/02:21am - - - - - SW 46 65 25 35 - - -
18/02:00am - - - - - SW 44 56 24 30 - - -
18/01:37am - - - - - SW 37 65 20 35 - - -
18/01:30am - - - - - WSW 33 46 18 25 - - -
18/01:23am - - - - - WSW 33 52 18 28 - - -
18/01:09am - - - - - WSW 46 52 25 28 - - -
18/01:00am - - - - - W 35 43 19 23 - - -
18/12:30am - - - - - W 39 48 21 26 - - -
18/12:00am - - - - - W 41 48 22 26 - - -
 
Date/Time
EST
Tmp

°C
App
Tmp
°C
Dew
Point
°C
Rel
Hum
%
Delta-T

°C
Wind Press
QNH
hPa
Press
MSL
hPa
Rain
since
9 am
mm
Dir
 
Spd
km/h
Gust
km/h
Spd
kts
Gust
kts
17/11:30pm - - - - - W 41 50 22 27 - - -
17/11:00pm - - - - - WNW 39 50 21 27 - - -
17/10:50pm - - - - - WNW 37 39 20 21 - - -
17/10:30pm - - - - - WSW 43 57 23 31 - - -
17/10:00pm - - - - - W 41 54 22 29 - - -
17/09:30pm - - - - - WNW 35 41 19 22 - - -
17/09:28pm - - - - - WNW 35 39 19 21 - - -
17/09:00pm - - - - - WSW 39 50 21 27 - - -
17/08:30pm - - - - - W 39 48 21 26 - - -
17/08:00pm - - - - - W 41 50 22 27 - - -
17/07:33pm - - - - - WSW 43 61 23 33 - - -
17/07:30pm - - - - - WSW 50 67 27 36 - - -
17/07:19pm - - - - - W 43 63 23 34 - - -
17/07:00pm - - - - - WSW 39 48 21 26 - - -
17/06:31pm - - - - - WSW 48 67 26 36 - - -
17/06:30pm - - - - - WSW 46 56 25 30 - - -
17/06:19pm - - - - - W 48 54 26 29 - - -
17/06:00pm - - - - - SW 54 69 29 37 - - -
17/05:53pm - - - - - SW 50 69 27 37 - - -
17/05:30pm - - - - - WSW 46 59 25 32 - - -
17/05:03pm - - - - - SW 48 74 26 40 - - -
17/05:00pm - - - - - SW 44 59 24 32 - - -
17/04:30pm - - - - - SW 57 72 31 39 - - -
17/04:00pm - - - - - SW 57 70 31 38 - - -
17/03:38pm - - - - - W 54 72 29 39 - - -
17/03:30pm - - - - - WSW 57 72 31 39 - - -
17/03:00pm - - - - - WSW 57 74 31 40 - - -
17/02:55pm - - - - - WSW 56 74 30 40 - - -
17/02:30pm - - - - - WSW 57 70 31 38 - - -
17/02:00pm - - - - - WSW 52 70 28 38 - - -
17/01:30pm - - - - - WSW 52 72 28 39 - - -
17/01:00pm - - - - - WSW 48 59 26 32 - - -
17/12:30pm - - - - - WSW 41 50 22 27 - - -
17/12:00pm - - - - - WSW 48 61 26 33 - - -
17/11:30am - - - - - WSW 54 69 29 37 - - -
17/11:16am - - - - - SW 57 65 31 35 - - -
17/11:00am - - - - - W 39 48 21 26 - - -
17/10:30am - - - - - W 41 50 22 27 - - -
17/10:00am - - - - - W 43 52 23 28 - - -
17/09:30am - - - - - W 44 54 24 29 - - -
17/09:00am - - - - - W 43 50 23 27 - - -
17/08:30am - - - - - WNW 44 52 24 28 - - -
17/08:00am - - - - - WNW 39 46 21 25 - - -
17/07:30am - - - - - WNW 39 46 21 25 - - -
17/07:00am - - - - - WNW 37 43 20 23 - - -
17/06:30am - - - - - WNW 32 39 17 21 - - -
17/06:00am - - - - - W 35 39 19 21 - - -
17/05:30am - - - - - WNW 41 50 22 27 - - -
17/05:00am - - - - - WNW 39 46 21 25 - - -
17/04:30am - - - - - WNW 39 46 21 25 - - -
17/04:00am - - - - - WNW 35 39 19 21 - - -
17/03:30am - - - - - WNW 30 33 16 18 - - -
17/03:00am - - - - - WNW 28 32 15 17 - - -
17/02:30am - - - - - WNW 32 37 17 20 - - -
17/02:00am - - - - - WNW 32 37 17 20 - - -
17/01:30am - - - - - WNW 26 32 14 17 - - -
17/01:00am - - - - - WNW 24 32 13 17 - - -
17/12:30am - - - - - NW 28 32 15 17 - - -
17/12:00am - - - - - WNW 28 30 15 16 - - -
 
Date/Time
EST
Tmp

°C
App
Tmp
°C
Dew
Point
°C
Rel
Hum
%
Delta-T

°C
Wind Press
QNH
hPa
Press
MSL
hPa
Rain
since
9 am
mm
Dir
 
Spd
km/h
Gust
km/h
Spd
kts
Gust
kts
16/11:30pm - - - - - NW 24 28 13 15 - - -
16/11:00pm - - - - - WNW 22 26 12 14 - - -
16/10:30pm - - - - - WNW 24 28 13 15 - - -
16/10:00pm - - - - - W 24 28 13 15 - - -
16/09:30pm - - - - - WSW 26 30 14 16 - - -
16/09:00pm - - - - - SW 30 33 16 18 - - -
16/08:30pm - - - - - SW 33 37 18 20 - - -
16/08:00pm - - - - - WSW 33 41 18 22 - - -
16/07:30pm - - - - - WSW 37 43 20 23 - - -
16/07:00pm - - - - - WSW 39 44 21 24 - - -
16/06:30pm - - - - - WSW 44 52 24 28 - - -
16/06:00pm - - - - - SW 48 56 26 30 - - -
16/05:30pm - - - - - SW 44 52 24 28 - - -
16/05:00pm - - - - - SW 48 57 26 31 - - -
16/04:30pm - - - - - SW 46 56 25 30 - - -
16/04:00pm - - - - - SW 52 61 28 33 - - -
16/03:30pm - - - - - WSW 52 57 28 31 - - -
16/03:00pm - - - - - - - - - - - - -
16/02:30pm - - - - - SW 52 61 28 33 - - -
16/02:00pm - - - - - SW 48 56 26 30 - - -
16/01:30pm - - - - - SW 48 56 26 30 - - -
16/01:00pm - - - - - SW 44 56 24 30 - - -
16/12:30pm - - - - - SW 35 50 19 27 - - -
16/12:29pm - - - - - SW 33 50 18 27 - - -
16/12:00pm - - - - - SW 26 30 14 16 - - -
16/11:30am - - - - - SSW 22 24 12 13 - - -
16/11:00am - - - - - SSW 26 28 14 15 - - -
16/10:30am - - - - - SW 20 26 11 14 - - -
16/10:00am - - - - - SW 20 28 11 15 - - -
16/09:30am - - - - - SSW 15 17 8 9 - - -
16/09:00am - - - - - S 13 17 7 9 - - -
16/08:30am - - - - - S 22 26 12 14 - - -
16/08:00am - - - - - SSW 24 28 13 15 - - -
16/07:30am - - - - - SW 24 28 13 15 - - -
16/07:00am - - - - - SW 24 28 13 15 - - -
16/06:30am - - - - - W 17 20 9 11 - - -
16/06:00am - - - - - WSW 13 17 7 9 - - -
16/05:30am - - - - - W 9 13 5 7 - - -
16/05:00am - - - - - W 9 13 5 7 - - -
16/04:30am - - - - - WSW 13 15 7 8 - - -
16/04:00am - - - - - W 11 15 6 8 - - -
16/03:30am - - - - - W 9 13 5 7 - - -
16/03:00am - - - - - E 9 17 5 9 - - -
16/02:30am - - - - - ESE 28 35 15 19 - - -
16/02:00am - - - - - ESE 15 26 8 14 - - -
16/01:30am - - - - - E 41 54 22 29 - - -
16/01:00am - - - - - E 41 50 22 27 - - -
16/12:30am - - - - - E 43 52 23 28 - - -
16/12:00am - - - - - E 46 54 25 29 - - -

Latest Capital City Observations: Canberra | Sydney | Melbourne | Brisbane | Adelaide | Perth | Hobart | Darwin

Other Formats:

Comma delimited format used in spreadsheet applications
http://www.bom.gov.au/fwo/IDV60901/IDV60901.94853.axf

JavaScript Object Notation format (JSON) in row-major order
http://www.bom.gov.au/fwo/IDV60901/IDV60901.94853.json